createdAt,value
2023-01-13T00:00:25.010Z,-4.57
2023-01-13T00:02:52.308Z,-4.52
2023-01-13T00:05:19.766Z,-4.53
2023-01-13T00:07:48.963Z,-4.50
2023-01-13T00:10:16.616Z,-4.45
2023-01-13T00:12:44.556Z,-4.42
2023-01-13T00:15:12.231Z,-4.39
2023-01-13T00:17:39.575Z,-4.46
2023-01-13T00:20:07.881Z,-4.46
2023-01-13T00:22:35.832Z,-4.57
2023-01-13T00:25:04.680Z,-4.61
2023-01-13T00:27:32.628Z,-4.52
2023-01-13T00:30:00.090Z,-4.60
2023-01-13T00:32:28.685Z,-4.66
2023-01-13T00:34:55.910Z,-4.63
2023-01-13T00:37:23.731Z,-4.53
2023-01-13T00:39:54.102Z,-4.55
2023-01-13T00:42:40.109Z,-4.60
2023-01-13T00:45:07.906Z,-4.58
2023-01-13T00:47:35.027Z,-4.54
2023-01-13T00:50:02.447Z,-4.41
2023-01-13T00:52:29.658Z,-4.35
2023-01-13T00:54:57.337Z,-4.25
2023-01-13T00:57:24.603Z,-4.25
2023-01-13T00:59:51.847Z,-4.26
2023-01-13T01:02:19.068Z,-4.19
2023-01-13T01:04:46.392Z,-4.09
2023-01-13T01:07:14.253Z,-4.02
2023-01-13T01:09:41.403Z,-4.04
2023-01-13T01:12:08.755Z,-3.97
2023-01-13T01:14:35.976Z,-4.04
2023-01-13T01:17:03.566Z,-4.05
2023-01-13T01:19:31.235Z,-4.06
2023-01-13T01:21:58.535Z,-4.09
2023-01-13T01:24:25.855Z,-4.08
2023-01-13T01:26:53.062Z,-4.05
2023-01-13T01:29:20.153Z,-4.04
2023-01-13T01:31:47.455Z,-4.00
2023-01-13T01:34:14.647Z,-3.85
2023-01-13T01:36:41.795Z,-3.78
2023-01-13T01:39:11.109Z,-3.74
2023-01-13T01:41:38.597Z,-3.96
2023-01-13T01:44:28.757Z,-3.80
2023-01-13T01:46:57.055Z,-3.81
2023-01-13T01:49:32.728Z,-3.71
2023-01-13T01:52:09.485Z,-3.83
2023-01-13T01:54:44.539Z,-3.95
2023-01-13T01:57:15.562Z,-3.89
2023-01-13T01:59:43.483Z,-3.80
2023-01-13T02:02:11.366Z,-3.92
2023-01-13T02:04:41.273Z,-3.92
2023-01-13T02:07:08.892Z,-4.04
2023-01-13T02:09:37.050Z,-3.91
2023-01-13T02:12:23.332Z,-3.88
2023-01-13T02:14:50.481Z,-3.82
2023-01-13T02:17:34.865Z,-3.77
2023-01-13T02:20:35.091Z,-3.74
2023-01-13T02:23:42.420Z,-3.88
2023-01-13T02:26:21.602Z,-3.86
2023-01-13T02:29:27.399Z,-3.87
2023-01-13T02:32:04.585Z,-3.88
2023-01-13T02:34:47.259Z,-3.72
2023-01-13T02:37:26.362Z,-3.73
2023-01-13T02:40:14.803Z,-3.64
2023-01-13T02:43:14.712Z,-3.57
2023-01-13T02:45:52.631Z,-3.53
2023-01-13T02:48:23.314Z,-3.48
2023-01-13T02:51:19.516Z,-3.39
2023-01-13T02:53:54.540Z,-3.36
2023-01-13T02:56:24.761Z,-3.33
2023-01-13T02:58:56.765Z,-3.25
2023-01-13T03:01:24.707Z,-3.23
2023-01-13T03:03:52.066Z,-3.24
2023-01-13T03:06:43.441Z,-3.18
2023-01-13T03:09:22.172Z,-3.16
2023-01-13T03:12:15.562Z,-3.14
2023-01-13T03:14:54.388Z,-3.12
2023-01-13T03:17:40.905Z,-3.08
2023-01-13T03:20:13.627Z,-3.05
2023-01-13T03:22:41.371Z,-3.03
2023-01-13T03:25:15.944Z,-3.08
2023-01-13T03:27:48.495Z,-3.05
2023-01-13T03:30:23.718Z,-3.02
2023-01-13T03:32:54.034Z,-3.06
2023-01-13T03:35:26.329Z,-3.01
2023-01-13T03:38:17.202Z,-2.97
2023-01-13T03:40:54.950Z,-2.95
2023-01-13T03:43:48.712Z,-2.92
2023-01-13T03:46:44.813Z,-2.97
2023-01-13T03:49:17.537Z,-2.93
2023-01-13T03:51:48.333Z,-2.93
2023-01-13T03:54:18.183Z,-2.98
2023-01-13T03:56:54.934Z,-2.97
2023-01-13T03:59:27.361Z,-2.93
2023-01-13T04:02:07.551Z,-2.95
2023-01-13T04:04:37.708Z,-3.02
2023-01-13T04:07:20.742Z,-2.97
2023-01-13T04:09:52.510Z,-3.00
2023-01-13T04:12:22.965Z,-3.01
2023-01-13T04:14:51.577Z,-3.01
2023-01-13T04:17:21.210Z,-3.02
2023-01-13T04:19:49.854Z,-2.94
2023-01-13T04:22:17.157Z,-2.95
2023-01-13T04:24:44.643Z,-2.95
2023-01-13T04:27:13.701Z,-2.90
2023-01-13T04:29:40.915Z,-2.88
2023-01-13T04:32:08.215Z,-2.86
2023-01-13T04:34:35.533Z,-2.84
2023-01-13T04:37:02.525Z,-2.85
2023-01-13T04:39:29.983Z,-2.84
2023-01-13T04:42:00.227Z,-2.79
2023-01-13T04:44:27.959Z,-2.79
2023-01-13T04:46:55.406Z,-2.79
2023-01-13T04:52:11.223Z,-2.82
2023-01-13T04:54:40.344Z,-2.79
2023-01-13T04:57:07.408Z,-2.77
2023-01-13T04:59:34.975Z,-2.78
2023-01-13T05:02:02.757Z,-2.76
2023-01-13T05:04:30.314Z,-2.71
2023-01-13T05:06:59.086Z,-2.73
2023-01-13T05:09:26.253Z,-2.72
2023-01-13T05:12:11.861Z,-2.74
2023-01-13T05:14:57.521Z,-2.72
2023-01-13T05:17:26.298Z,-2.69
2023-01-13T05:19:53.420Z,-2.67
2023-01-13T05:22:39.350Z,-2.68
2023-01-13T05:25:22.130Z,-2.67
2023-01-13T05:27:50.331Z,-2.71
2023-01-13T05:30:18.430Z,-2.77
2023-01-13T05:32:46.275Z,-2.73
2023-01-13T05:35:17.067Z,-2.74
2023-01-13T05:37:47.211Z,-2.72
2023-01-13T05:40:36.941Z,-2.75
2023-01-13T05:43:26.171Z,-2.79
2023-01-13T05:46:02.544Z,-2.72
2023-01-13T05:48:40.254Z,-2.71
2023-01-13T05:51:14.559Z,-2.73
2023-01-13T05:53:42.401Z,-2.79
2023-01-13T05:56:16.296Z,-2.72
2023-01-13T05:58:48.077Z,-2.72
2023-01-13T06:01:17.118Z,-2.70
2023-01-13T06:03:46.532Z,-2.63
2023-01-13T06:06:15.176Z,-2.60
2023-01-13T06:08:45.224Z,-2.52
2023-01-13T06:11:14.414Z,-2.53
2023-01-13T06:13:43.302Z,-2.53
2023-01-13T06:16:12.944Z,-2.49
2023-01-13T06:18:44.885Z,-2.46
2023-01-13T06:21:14.015Z,-2.47
2023-01-13T06:23:44.483Z,-2.43
2023-01-13T06:26:21.864Z,-2.42
2023-01-13T06:28:51.205Z,-2.42
2023-01-13T06:31:20.905Z,-2.41
2023-01-13T06:33:59.544Z,-2.36
2023-01-13T06:36:32.739Z,-2.46
2023-01-13T06:39:03.301Z,-2.38
2023-01-13T06:41:53.420Z,-2.46
2023-01-13T06:44:24.605Z,-2.43
2023-01-13T06:46:53.703Z,-2.51
2023-01-13T06:49:22.396Z,-2.39
2023-01-13T06:51:54.799Z,-2.44
2023-01-13T06:54:22.566Z,-2.47
2023-01-13T06:56:51.230Z,-2.48
2023-01-13T06:59:19.860Z,-2.56
2023-01-13T07:01:47.652Z,-2.44
2023-01-13T07:04:17.419Z,-2.43
2023-01-13T07:06:46.124Z,-2.50
2023-01-13T07:09:15.488Z,-2.55
2023-01-13T07:11:44.646Z,-2.35
2023-01-13T07:14:32.096Z,-2.38
2023-01-13T07:17:00.693Z,-2.50
2023-01-13T07:19:28.881Z,-2.57
2023-01-13T07:21:57.525Z,-2.57
2023-01-13T07:24:26.530Z,-2.52
2023-01-13T07:26:55.833Z,-2.42
2023-01-13T07:29:26.084Z,-2.32
2023-01-13T07:31:54.539Z,-2.26
2023-01-13T07:34:24.358Z,-2.20
2023-01-13T07:36:52.964Z,-2.18
2023-01-13T07:39:24.306Z,-2.15
2023-01-13T07:42:10.688Z,-2.20
2023-01-13T07:44:39.544Z,-2.32
2023-01-13T07:47:11.179Z,-2.16
2023-01-13T07:49:41.553Z,-2.06
2023-01-13T07:52:12.692Z,-1.98
2023-01-13T07:54:41.442Z,-2.03
2023-01-13T07:57:12.400Z,-1.88
2023-01-13T07:59:41.325Z,-1.71
2023-01-13T08:02:14.557Z,-1.70
2023-01-13T08:04:43.733Z,-1.55
2023-01-13T08:07:12.619Z,-1.34
2023-01-13T08:09:41.322Z,-1.18
2023-01-13T08:12:27.521Z,-1.03
2023-01-13T08:14:57.155Z,-0.94
2023-01-13T08:17:26.263Z,-0.98
2023-01-13T08:19:54.921Z,-0.93
2023-01-13T08:22:23.774Z,-0.85
2023-01-13T08:24:51.809Z,-0.79
2023-01-13T08:27:20.720Z,-0.81
2023-01-13T08:29:49.661Z,-0.70
2023-01-13T08:32:18.084Z,-0.63
2023-01-13T08:34:46.382Z,-0.63
2023-01-13T08:37:14.387Z,-0.51
2023-01-13T08:39:43.526Z,-0.48
2023-01-13T08:42:12.202Z,-0.44
2023-01-13T08:44:39.762Z,-0.49
2023-01-13T08:47:07.670Z,-0.42
2023-01-13T08:49:38.031Z,-0.40
2023-01-13T08:52:06.047Z,-0.37
2023-01-13T08:54:33.811Z,-0.30
2023-01-13T08:57:03.826Z,-0.23
2023-01-13T08:59:33.092Z,-0.35
2023-01-13T09:02:04.845Z,-0.48
2023-01-13T09:04:33.778Z,-0.45
2023-01-13T09:07:03.852Z,-0.43
2023-01-13T09:09:32.056Z,-0.43
2023-01-13T09:12:18.275Z,-0.64
2023-01-13T09:14:46.583Z,-0.57
2023-01-13T09:17:15.443Z,-0.48
2023-01-13T09:19:44.975Z,-0.30
2023-01-13T09:22:19.508Z,-0.14
2023-01-13T09:24:48.652Z,-0.15
2023-01-13T09:27:16.691Z,-0.05
2023-01-13T09:29:44.200Z,0.02
2023-01-13T09:32:14.410Z,0.08
2023-01-13T09:35:02.068Z,0.19
2023-01-13T09:37:37.508Z,0.23
2023-01-13T09:40:15.878Z,0.24
2023-01-13T09:43:13.901Z,0.21
2023-01-13T09:45:51.905Z,0.18
2023-01-13T09:48:26.007Z,0.05
2023-01-13T09:51:26.100Z,0.26
2023-01-13T09:54:03.413Z,0.39
2023-01-13T09:56:32.716Z,0.43
2023-01-13T09:59:01.813Z,0.49
2023-01-13T10:01:39.669Z,0.47
2023-01-13T10:04:17.296Z,0.66
2023-01-13T10:06:54.066Z,0.65
2023-01-13T10:09:31.519Z,0.59
2023-01-13T10:12:21.283Z,0.51
2023-01-13T10:14:56.276Z,0.47
2023-01-13T10:17:30.091Z,0.58
2023-01-13T10:20:25.869Z,0.57
2023-01-13T10:23:06.128Z,0.64
2023-01-13T10:25:46.495Z,0.64
2023-01-13T10:28:19.749Z,0.67
2023-01-13T10:30:49.132Z,0.60
2023-01-13T10:33:30.255Z,0.66
2023-01-13T10:36:02.619Z,0.68
2023-01-13T10:38:43.280Z,1.01
2023-01-13T10:41:18.084Z,0.89
2023-01-13T10:43:59.807Z,1.00
2023-01-13T10:46:30.144Z,1.01
2023-01-13T10:49:25.906Z,1.45
2023-01-13T10:51:54.935Z,1.66
2023-01-13T10:54:25.814Z,1.86
2023-01-13T10:57:21.392Z,1.86
2023-01-13T10:59:54.883Z,1.88
2023-01-13T11:02:43.988Z,1.97
2023-01-13T11:05:26.902Z,1.77
2023-01-13T11:07:58.682Z,1.81
2023-01-13T11:10:33.603Z,1.88
2023-01-13T11:13:16.580Z,2.03
2023-01-13T11:15:48.547Z,2.01
2023-01-13T11:18:33.992Z,1.78
2023-01-13T11:21:09.667Z,1.63
2023-01-13T11:23:47.768Z,1.61
2023-01-13T11:26:25.531Z,1.67
2023-01-13T11:29:30.675Z,1.43
2023-01-13T11:32:15.172Z,1.39
2023-01-13T11:34:49.497Z,1.25
2023-01-13T11:37:31.529Z,1.07
2023-01-13T11:40:14.228Z,0.77
2023-01-13T11:43:00.510Z,0.73
2023-01-13T11:45:53.958Z,0.57
2023-01-13T11:48:27.746Z,0.49
2023-01-13T11:50:59.709Z,0.40
2023-01-13T11:54:01.882Z,0.42
2023-01-13T11:56:29.810Z,0.11
2023-01-13T11:59:16.740Z,-0.02
2023-01-13T12:02:14.371Z,-0.42
2023-01-13T12:05:05.003Z,-0.63
2023-01-13T12:07:53.775Z,-0.83
2023-01-13T12:10:45.370Z,-1.04
2023-01-13T12:13:38.074Z,-1.08
2023-01-13T12:16:30.684Z,-1.01
2023-01-13T12:19:01.120Z,-1.23
2023-01-13T12:21:38.372Z,-1.38
2023-01-13T12:24:21.137Z,-1.13
2023-01-13T12:27:08.558Z,-1.18
2023-01-13T12:29:38.396Z,-1.24
2023-01-13T12:32:14.033Z,-0.94
2023-01-13T12:35:20.798Z,-0.94
2023-01-13T12:38:12.114Z,-0.93
2023-01-13T12:41:00.977Z,-1.18
2023-01-13T12:43:48.288Z,-1.11
2023-01-13T12:46:25.456Z,-1.02
2023-01-13T12:48:57.743Z,-0.78
2023-01-13T12:51:57.351Z,-0.50
2023-01-13T12:54:31.549Z,-0.39
2023-01-13T12:57:00.568Z,-0.37
2023-01-13T12:59:27.856Z,-0.43
2023-01-13T13:02:16.076Z,-0.53
2023-01-13T13:04:53.142Z,-0.52
2023-01-13T13:07:42.738Z,-0.37
2023-01-13T13:10:24.983Z,-0.42
2023-01-13T13:13:19.405Z,-0.25
2023-01-13T13:15:52.044Z,-0.10
2023-01-13T13:18:24.188Z,-0.01
2023-01-13T13:21:05.628Z,0.05
2023-01-13T13:24:01.826Z,0.10
2023-01-13T13:26:36.870Z,0.06
2023-01-13T13:29:34.002Z,0.10
2023-01-13T13:32:07.628Z,-0.06
2023-01-13T13:34:52.578Z,-0.14
2023-01-13T13:38:20.686Z,-0.13
2023-01-13T13:41:07.578Z,-0.18
2023-01-13T13:44:03.710Z,-0.09
2023-01-13T13:46:47.918Z,-0.05
2023-01-13T13:49:18.175Z,0.03
2023-01-13T13:52:09.367Z,0.01
2023-01-13T13:54:45.834Z,-0.08
2023-01-13T13:57:18.227Z,-0.10
2023-01-13T13:59:55.391Z,-0.16
2023-01-13T14:02:31.651Z,-0.29
2023-01-13T14:05:22.974Z,-0.35
2023-01-13T14:08:00.714Z,-0.43
2023-01-13T14:10:38.271Z,-0.51
2023-01-13T14:13:21.370Z,-0.51
2023-01-13T14:15:51.864Z,-0.53
2023-01-13T14:18:21.921Z,-0.62
2023-01-13T14:20:56.366Z,-0.64
2023-01-13T14:23:28.579Z,-0.66
2023-01-13T14:26:01.391Z,-0.65
2023-01-13T14:28:39.875Z,-0.66
2023-01-13T14:31:10.333Z,-0.71
2023-01-13T14:33:45.861Z,-0.75
2023-01-13T14:36:36.586Z,-0.73
2023-01-13T14:39:04.523Z,-0.73
2023-01-13T14:41:47.580Z,-0.70
2023-01-13T14:44:15.041Z,-0.80
2023-01-13T14:46:45.363Z,-0.76
2023-01-13T14:49:21.868Z,-0.75
2023-01-13T14:51:49.303Z,-0.74
2023-01-13T14:54:45.975Z,-0.78
2023-01-13T14:57:15.719Z,-0.74
2023-01-13T15:00:05.373Z,-0.67
2023-01-13T15:02:34.639Z,-0.69
2023-01-13T15:05:17.386Z,-0.76
2023-01-13T15:08:03.471Z,-0.73
2023-01-13T15:10:41.813Z,-0.69
2023-01-13T15:13:35.784Z,-0.71
2023-01-13T15:16:25.364Z,-0.71
2023-01-13T15:18:54.511Z,-0.80
2023-01-13T15:21:22.199Z,-0.74
2023-01-13T15:23:49.631Z,-0.67
2023-01-13T15:26:21.078Z,-0.64
2023-01-13T15:28:49.123Z,-0.60
2023-01-13T15:31:16.288Z,-0.63
2023-01-13T15:33:43.602Z,-0.60
2023-01-13T15:36:23.618Z,-0.62
2023-01-13T15:38:51.217Z,-0.53
2023-01-13T15:41:38.631Z,-0.51
2023-01-13T15:44:24.481Z,-0.52
2023-01-13T15:46:52.132Z,-0.52
2023-01-13T15:49:19.213Z,-0.47
2023-01-13T15:51:46.648Z,-0.41
2023-01-13T15:54:14.206Z,-0.44
2023-01-13T15:56:42.213Z,-0.48
2023-01-13T15:59:18.177Z,-0.41
2023-01-13T16:01:46.244Z,-0.38
2023-01-13T16:04:13.702Z,-0.35
2023-01-13T16:06:41.406Z,-0.28
2023-01-13T16:09:12.805Z,-0.26
2023-01-13T16:11:40.221Z,-0.21
2023-01-13T16:14:07.293Z,-0.26
2023-01-13T16:16:35.929Z,-0.22
2023-01-13T16:19:04.267Z,-0.19
2023-01-13T16:21:31.475Z,-0.27
2023-01-13T16:23:58.778Z,-0.21
2023-01-13T16:26:30.163Z,-0.29
2023-01-13T16:28:58.501Z,-0.33
2023-01-13T16:31:34.402Z,-0.48
2023-01-13T16:34:03.728Z,-0.48
2023-01-13T16:36:34.578Z,-0.57
2023-01-13T16:39:02.675Z,-0.50
2023-01-13T16:41:30.034Z,-0.46
2023-01-13T16:43:57.209Z,-0.52
2023-01-13T16:46:29.475Z,-0.52
2023-01-13T16:49:02.024Z,-0.49
2023-01-13T16:51:29.256Z,-0.47
2023-01-13T16:53:56.602Z,-0.51
2023-01-13T16:56:32.428Z,-0.56
2023-01-13T16:59:03.753Z,-0.54
2023-01-13T17:01:33.383Z,-0.50
2023-01-13T17:04:01.268Z,-0.53
2023-01-13T17:06:30.841Z,-0.66
2023-01-13T17:09:18.740Z,-0.64
2023-01-13T17:11:46.247Z,-0.62
2023-01-13T17:14:18.983Z,-0.58
2023-01-13T17:16:47.183Z,-0.63
2023-01-13T17:19:14.940Z,-0.73
2023-01-13T17:21:42.452Z,-0.83
2023-01-13T17:24:10.781Z,-0.76
2023-01-13T17:26:42.501Z,-0.74
2023-01-13T17:29:29.811Z,-0.69
2023-01-13T17:31:56.900Z,-0.69
2023-01-13T17:34:24.123Z,-0.60
2023-01-13T17:36:51.338Z,-0.63
2023-01-13T17:39:24.533Z,-0.63
2023-01-13T17:41:53.738Z,-0.60
2023-01-13T17:44:22.665Z,-0.67
2023-01-13T17:46:50.113Z,-0.61
2023-01-13T17:49:19.074Z,-0.54
2023-01-13T17:51:51.204Z,-0.48
2023-01-13T17:54:18.818Z,-0.48
2023-01-13T17:56:46.089Z,-0.46
2023-01-13T17:59:14.554Z,-0.44
2023-01-13T18:01:42.371Z,-0.51
2023-01-13T18:04:22.089Z,-0.48
2023-01-13T18:06:49.785Z,-0.46
2023-01-13T18:09:17.410Z,-0.43
2023-01-13T18:11:47.142Z,-0.52
2023-01-13T18:14:14.849Z,-0.47
2023-01-13T18:16:42.103Z,-0.43
2023-01-13T18:19:29.543Z,-0.59
2023-01-13T18:22:15.003Z,-0.56
2023-01-13T18:25:00.950Z,-0.52
2023-01-13T18:27:35.897Z,-0.62
2023-01-13T18:30:04.441Z,-0.61
2023-01-13T18:32:33.808Z,-0.67
2023-01-13T18:35:06.811Z,-0.69
2023-01-13T18:37:38.955Z,-0.74
2023-01-13T18:40:09.610Z,-0.73
2023-01-13T18:42:54.968Z,-0.67
2023-01-13T18:45:25.559Z,-0.66
2023-01-13T18:47:54.510Z,-0.65
2023-01-13T18:50:22.550Z,-0.67
2023-01-13T18:52:49.970Z,-0.62
2023-01-13T18:55:17.314Z,-0.62
2023-01-13T18:57:44.614Z,-0.69
2023-01-13T19:00:14.794Z,-0.63
2023-01-13T19:02:42.031Z,-0.65
2023-01-13T19:05:10.230Z,-0.64
2023-01-13T19:07:37.776Z,-0.69
2023-01-13T19:10:09.834Z,-0.69
2023-01-13T19:12:37.284Z,-0.70
2023-01-13T19:15:04.861Z,-0.70
2023-01-13T19:17:34.651Z,-0.67
2023-01-13T19:20:02.500Z,-0.68
2023-01-13T19:22:32.979Z,-0.68
2023-01-13T19:25:01.627Z,-0.77
2023-01-13T19:27:29.580Z,-0.72
2023-01-13T19:30:03.997Z,-0.73
2023-01-13T19:32:33.402Z,-0.77
2023-01-13T19:35:01.287Z,-0.75
2023-01-13T19:37:30.631Z,-0.71
2023-01-13T19:39:59.284Z,-0.76
2023-01-13T19:42:46.001Z,-0.77
2023-01-13T19:45:26.680Z,-0.71
2023-01-13T19:47:54.852Z,-0.64
2023-01-13T19:50:22.151Z,-0.66
2023-01-13T19:52:51.325Z,-0.63
2023-01-13T19:55:20.423Z,-0.66
2023-01-13T19:57:47.583Z,-0.72
2023-01-13T20:00:21.034Z,-0.63
2023-01-13T20:02:49.926Z,-0.69
2023-01-13T20:05:22.203Z,-0.69
2023-01-13T20:07:51.187Z,-0.76
2023-01-13T20:10:20.362Z,-0.77
2023-01-13T20:12:47.524Z,-0.73
2023-01-13T20:15:15.069Z,-0.73
2023-01-13T20:17:42.362Z,-0.76
2023-01-13T20:20:11.010Z,-0.84
2023-01-13T20:22:39.661Z,-0.81
2023-01-13T20:25:08.105Z,-0.81
2023-01-13T20:27:37.363Z,-0.84
2023-01-13T20:30:05.896Z,-0.87
2023-01-13T20:32:33.251Z,-0.81
2023-01-13T20:35:00.345Z,-0.86
2023-01-13T20:37:27.871Z,-0.92
2023-01-13T20:39:57.627Z,-0.85
2023-01-13T20:42:30.839Z,-0.90
2023-01-13T20:45:01.551Z,-0.83
2023-01-13T20:47:30.052Z,-0.81
2023-01-13T20:49:57.515Z,-0.80
2023-01-13T20:52:25.037Z,-0.75
2023-01-13T20:54:52.286Z,-0.75
2023-01-13T20:57:19.676Z,-0.85
2023-01-13T20:59:46.838Z,-0.77
2023-01-13T21:02:16.895Z,-0.78
2023-01-13T21:04:44.615Z,-0.81
2023-01-13T21:07:12.341Z,-0.84
2023-01-13T21:09:39.855Z,-0.85
2023-01-13T21:12:26.580Z,-0.85
2023-01-13T21:15:12.300Z,-0.91
2023-01-13T21:17:57.953Z,-0.86
2023-01-13T21:20:25.483Z,-0.81
2023-01-13T21:22:53.114Z,-0.89
2023-01-13T21:25:20.590Z,-0.91
2023-01-13T21:27:47.931Z,-0.88
2023-01-13T21:30:17.235Z,-0.86
2023-01-13T21:32:45.923Z,-0.78
2023-01-13T21:35:13.926Z,-0.77
2023-01-13T21:37:42.941Z,-0.85
2023-01-13T21:40:12.575Z,-0.90
2023-01-13T21:42:58.243Z,-0.87
2023-01-13T21:45:44.081Z,-0.85
2023-01-13T21:48:11.419Z,-0.84
2023-01-13T21:50:38.914Z,-0.85
2023-01-13T21:53:08.319Z,-0.77
2023-01-13T21:55:37.094Z,-0.73
2023-01-13T21:58:09.725Z,-0.84
2023-01-13T22:00:37.024Z,-0.76
2023-01-13T22:03:06.227Z,-0.88
2023-01-13T22:05:33.907Z,-0.86
2023-01-13T22:08:01.510Z,-0.88
2023-01-13T22:10:30.699Z,-0.92
2023-01-13T22:13:20.840Z,-0.87
2023-01-13T22:15:48.545Z,-0.81
2023-01-13T22:18:18.511Z,-0.79
2023-01-13T22:20:46.286Z,-0.90
2023-01-13T22:23:14.695Z,-0.85
2023-01-13T22:25:42.176Z,-0.84
2023-01-13T22:28:09.600Z,-0.91
2023-01-13T22:30:37.049Z,-0.86
2023-01-13T22:33:04.513Z,-0.85
2023-01-13T22:35:31.955Z,-0.90
2023-01-13T22:37:59.238Z,-0.81
2023-01-13T22:40:26.661Z,-1.01
2023-01-13T22:42:53.812Z,-1.05
2023-01-13T22:45:21.601Z,-1.00
2023-01-13T22:47:49.815Z,-0.97
2023-01-13T22:50:21.072Z,-0.93
2023-01-13T22:52:48.283Z,-0.93
2023-01-13T22:55:15.724Z,-0.96
2023-01-13T22:57:47.971Z,-0.91
2023-01-13T23:00:19.058Z,-0.85
2023-01-13T23:02:46.531Z,-0.87
2023-01-13T23:05:14.035Z,-0.85
2023-01-13T23:07:41.499Z,-0.87
2023-01-13T23:10:09.338Z,-0.82
2023-01-13T23:12:36.346Z,-0.80
2023-01-13T23:15:04.206Z,-0.85
2023-01-13T23:17:31.702Z,-0.79
2023-01-13T23:19:58.931Z,-0.81
2023-01-13T23:22:26.071Z,-0.82
2023-01-13T23:24:53.460Z,-0.83
2023-01-13T23:27:20.657Z,-0.81
2023-01-13T23:29:47.839Z,-0.90
2023-01-13T23:32:14.952Z,-0.85
2023-01-13T23:34:41.925Z,-0.89
2023-01-13T23:37:09.545Z,-0.85
2023-01-13T23:39:36.776Z,-0.86
2023-01-13T23:42:04.133Z,-0.90
2023-01-13T23:44:31.152Z,-0.92
2023-01-13T23:46:58.814Z,-0.92
2023-01-13T23:49:26.103Z,-0.82
2023-01-13T23:51:53.615Z,-0.84
2023-01-13T23:54:20.924Z,-0.80
2023-01-13T23:56:50.497Z,-0.85
2023-01-13T23:59:17.653Z,-0.94
